sensor_id;sensor_type;location;lat;lon;timestamp;pressure;altitude;pressure_sealevel;temperature
13497;BMP180;6820;49.374;8.452;2024-03-25T00:02:43;99870.75;;;14.35
13497;BMP180;6820;49.374;8.452;2024-03-25T00:06:44;99871.59;;;14.34
13497;BMP180;6820;49.374;8.452;2024-03-25T00:10:45;99864.69;;;14.32
13497;BMP180;6820;49.374;8.452;2024-03-25T00:14:46;99871.59;;;14.34
13497;BMP180;6820;49.374;8.452;2024-03-25T00:18:46;99872.50;;;14.36
13497;BMP180;6820;49.374;8.452;2024-03-25T00:22:47;99869.25;;;14.40
13497;BMP180;6820;49.374;8.452;2024-03-25T00:26:48;99870.16;;;14.42
13497;BMP180;6820;49.374;8.452;2024-03-25T00:30:48;99866.72;;;14.40
13497;BMP180;6820;49.374;8.452;2024-03-25T00:34:49;99858.03;;;14.35
13497;BMP180;6820;49.374;8.452;2024-03-25T00:38:50;99870.53;;;14.29
13497;BMP180;6820;49.374;8.452;2024-03-25T00:42:51;99864.91;;;14.16
13497;BMP180;6820;49.374;8.452;2024-03-25T00:46:52;99865.03;;;13.97
13497;BMP180;6820;49.374;8.452;2024-03-25T00:50:52;99854.19;;;13.82
13497;BMP180;6820;49.374;8.452;2024-03-25T00:54:53;99860.09;;;13.61
13497;BMP180;6820;49.374;8.452;2024-03-25T00:58:54;99860.97;;;13.41
13497;BMP180;6820;49.374;8.452;2024-03-25T01:02:56;99874.13;;;13.32
13497;BMP180;6820;49.374;8.452;2024-03-25T01:06:57;99874.28;;;13.16
13497;BMP180;6820;49.374;8.452;2024-03-25T01:10:57;99871.28;;;13.06
13497;BMP180;6820;49.374;8.452;2024-03-25T01:14:58;99865.88;;;12.98
13497;BMP180;6820;49.374;8.452;2024-03-25T01:18:59;99870.44;;;12.86
13497;BMP180;6820;49.374;8.452;2024-03-25T01:22:59;99869.22;;;12.78
13497;BMP180;6820;49.374;8.452;2024-03-25T01:27:00;99867.41;;;12.76
13497;BMP180;6820;49.374;8.452;2024-03-25T01:31:01;99879.97;;;12.73
13497;BMP180;6820;49.374;8.452;2024-03-25T01:35:02;99870.53;;;12.71
13497;BMP180;6820;49.374;8.452;2024-03-25T01:39:03;99871.94;;;12.64
13497;BMP180;6820;49.374;8.452;2024-03-25T01:43:05;99871.88;;;12.63
13497;BMP180;6820;49.374;8.452;2024-03-25T01:47:06;99877.16;;;12.67
13497;BMP180;6820;49.374;8.452;2024-03-25T01:51:07;99871.09;;;12.64
13497;BMP180;6820;49.374;8.452;2024-03-25T01:55:15;99873.63;;;12.64
13497;BMP180;6820;49.374;8.452;2024-03-25T01:59:17;99865.66;;;12.56
13497;BMP180;6820;49.374;8.452;2024-03-25T02:03:18;99870.88;;;12.59
13497;BMP180;6820;49.374;8.452;2024-03-25T02:07:20;99872.69;;;12.62
13497;BMP180;6820;49.374;8.452;2024-03-25T02:11:22;99870.06;;;12.60
13497;BMP180;6820;49.374;8.452;2024-03-25T02:15:23;99874.63;;;12.67
13497;BMP180;6820;49.374;8.452;2024-03-25T02:19:27;99877.50;;;12.75
13497;BMP180;6820;49.374;8.452;2024-03-25T02:23:29;99863.28;;;12.78
13497;BMP180;6820;49.374;8.452;2024-03-25T02:27:30;99865.94;;;12.81
13497;BMP180;6820;49.374;8.452;2024-03-25T02:31:32;99859.91;;;12.79
13497;BMP180;6820;49.374;8.452;2024-03-25T02:35:33;99861.69;;;12.80
13497;BMP180;6820;49.374;8.452;2024-03-25T02:39:35;99870.16;;;12.80
13497;BMP180;6820;49.374;8.452;2024-03-25T02:43:36;99857.59;;;12.83
13497;BMP180;6820;49.374;8.452;2024-03-25T02:47:37;99860.25;;;12.86
13497;BMP180;6820;49.374;8.452;2024-03-25T02:51:37;99853.78;;;12.93
13497;BMP180;6820;49.374;8.452;2024-03-25T02:55:38;99853.84;;;12.94
13497;BMP180;6820;49.374;8.452;2024-03-25T02:59:39;99853.91;;;12.96
13497;BMP180;6820;49.374;8.452;2024-03-25T03:03:39;99857.31;;;12.96
13497;BMP180;6820;49.374;8.452;2024-03-25T03:07:40;99859.78;;;12.95
13497;BMP180;6820;49.374;8.452;2024-03-25T03:11:41;99852.16;;;12.95
13497;BMP180;6820;49.374;8.452;2024-03-25T03:15:44;99848.75;;;12.94
13497;BMP180;6820;49.374;8.452;2024-03-25T03:19:45;99846.00;;;12.90
13497;BMP180;6820;49.374;8.452;2024-03-25T03:23:46;99843.41;;;12.88
13497;BMP180;6820;49.374;8.452;2024-03-25T03:27:46;99856.72;;;12.83
13497;BMP180;6820;49.374;8.452;2024-03-25T03:31:47;99858.28;;;12.79
13497;BMP180;6820;49.374;8.452;2024-03-25T03:35:49;99857.94;;;12.74
13497;BMP180;6820;49.374;8.452;2024-03-25T03:39:50;99857.91;;;12.72
13497;BMP180;6820;49.374;8.452;2024-03-25T03:43:50;99870.47;;;12.69
13497;BMP180;6820;49.374;8.452;2024-03-25T03:47:51;99865.19;;;12.65
13497;BMP180;6820;49.374;8.452;2024-03-25T03:51:51;99868.47;;;12.62
13497;BMP180;6820;49.374;8.452;2024-03-25T03:55:56;99858.25;;;12.61
13497;BMP180;6820;49.374;8.452;2024-03-25T03:59:57;99863.16;;;12.58
13497;BMP180;6820;49.374;8.452;2024-03-25T04:03:58;99859.72;;;12.56
13497;BMP180;6820;49.374;8.452;2024-03-25T04:07:59;99862.91;;;12.52
13497;BMP180;6820;49.374;8.452;2024-03-25T04:12:00;99862.75;;;12.49
13497;BMP180;6820;49.374;8.452;2024-03-25T04:16:05;99853.28;;;12.45
13497;BMP180;6820;49.374;8.452;2024-03-25T04:20:06;99855.59;;;12.41
13497;BMP180;6820;49.374;8.452;2024-03-25T04:24:11;99854.53;;;12.36
13497;BMP180;6820;49.374;8.452;2024-03-25T04:28:11;99861.06;;;12.31
13497;BMP180;6820;49.374;8.452;2024-03-25T04:32:12;99859.19;;;12.27
13497;BMP180;6820;49.374;8.452;2024-03-25T04:36:13;99865.88;;;12.25
13497;BMP180;6820;49.374;8.452;2024-03-25T04:40:14;99859.78;;;12.21
13497;BMP180;6820;49.374;8.452;2024-03-25T04:44:15;99851.94;;;12.17
13497;BMP180;6820;49.374;8.452;2024-03-25T04:48:15;99855.16;;;12.13
13497;BMP180;6820;49.374;8.452;2024-03-25T04:52:16;99863.44;;;12.09
13497;BMP180;6820;49.374;8.452;2024-03-25T04:56:17;99863.28;;;12.06
13497;BMP180;6820;49.374;8.452;2024-03-25T05:00:18;99862.19;;;12.01
13497;BMP180;6820;49.374;8.452;2024-03-25T05:04:19;99868.00;;;11.99
13497;BMP180;6820;49.374;8.452;2024-03-25T05:08:20;99873.91;;;11.98
13497;BMP180;6820;49.374;8.452;2024-03-25T05:12:21;99874.72;;;11.97
13497;BMP180;6820;49.374;8.452;2024-03-25T05:16:22;99882.31;;;11.97
13497;BMP180;6820;49.374;8.452;2024-03-25T05:20:22;99875.34;;;11.93
13497;BMP180;6820;49.374;8.452;2024-03-25T05:24:23;99871.84;;;11.91
13497;BMP180;6820;49.374;8.452;2024-03-25T05:28:24;99874.34;;;11.89
13497;BMP180;6820;49.374;8.452;2024-03-25T05:32:25;99874.25;;;11.88
13497;BMP180;6820;49.374;8.452;2024-03-25T05:36:27;99883.63;;;11.89
13497;BMP180;6820;49.374;8.452;2024-03-25T05:40:27;99886.88;;;11.87
13497;BMP180;6820;49.374;8.452;2024-03-25T05:44:28;99884.34;;;11.87
13497;BMP180;6820;49.374;8.452;2024-03-25T05:48:29;99891.16;;;11.87
13497;BMP180;6820;49.374;8.452;2024-03-25T05:52:31;99886.94;;;11.88
13497;BMP180;6820;49.374;8.452;2024-03-25T05:56:32;99890.44;;;11.90
13497;BMP180;6820;49.374;8.452;2024-03-25T06:00:34;99889.63;;;11.91
13497;BMP180;6820;49.374;8.452;2024-03-25T06:04:35;99897.38;;;11.94
13497;BMP180;6820;49.374;8.452;2024-03-25T06:08:36;99898.41;;;11.97
13497;BMP180;6820;49.374;8.452;2024-03-25T06:12:37;99896.81;;;11.99
13497;BMP180;6820;49.374;8.452;2024-03-25T06:16:38;99898.69;;;12.03
13497;BMP180;6820;49.374;8.452;2024-03-25T06:20:39;99903.06;;;12.06
13497;BMP180;6820;49.374;8.452;2024-03-25T06:24:40;99901.47;;;12.08
13497;BMP180;6820;49.374;8.452;2024-03-25T06:28:42;99897.31;;;12.10
13497;BMP180;6820;49.374;8.452;2024-03-25T06:32:43;99901.75;;;12.14
13497;BMP180;6820;49.374;8.452;2024-03-25T06:37:02;99906.00;;;12.15
13497;BMP180;6820;49.374;8.452;2024-03-25T06:41:05;99907.91;;;12.18
13497;BMP180;6820;49.374;8.452;2024-03-25T06:45:05;99905.66;;;12.24
13497;BMP180;6820;49.374;8.452;2024-03-25T06:49:06;99911.09;;;12.32
13497;BMP180;6820;49.374;8.452;2024-03-25T06:53:07;99911.41;;;12.39
13497;BMP180;6820;49.374;8.452;2024-03-25T06:57:07;99913.31;;;12.43
13497;BMP180;6820;49.374;8.452;2024-03-25T07:01:09;99917.00;;;12.49
13497;BMP180;6820;49.374;8.452;2024-03-25T07:05:12;99908.00;;;12.56
13497;BMP180;6820;49.374;8.452;2024-03-25T07:09:13;99914.16;;;12.61
13497;BMP180;6820;49.374;8.452;2024-03-25T07:13:14;99906.72;;;12.65
13497;BMP180;6820;49.374;8.452;2024-03-25T07:17:15;99906.25;;;12.74
13497;BMP180;6820;49.374;8.452;2024-03-25T07:21:15;99915.94;;;12.80
13497;BMP180;6820;49.374;8.452;2024-03-25T07:25:16;99907.91;;;12.90
13497;BMP180;6820;49.374;8.452;2024-03-25T07:29:19;99906.50;;;12.97
13497;BMP180;6820;49.374;8.452;2024-03-25T07:33:19;99900.94;;;13.05
13497;BMP180;6820;49.374;8.452;2024-03-25T07:37:20;99901.19;;;13.11
13497;BMP180;6820;49.374;8.452;2024-03-25T07:41:21;99892.94;;;13.16
13497;BMP180;6820;49.374;8.452;2024-03-25T07:45:22;99901.91;;;13.27
13497;BMP180;6820;49.374;8.452;2024-03-25T07:49:22;99890.34;;;13.34
13497;BMP180;6820;49.374;8.452;2024-03-25T07:53:23;99890.66;;;13.41
13497;BMP180;6820;49.374;8.452;2024-03-25T07:57:24;99890.22;;;13.51
13497;BMP180;6820;49.374;8.452;2024-03-25T08:01:25;99894.94;;;13.62
13497;BMP180;6820;49.374;8.452;2024-03-25T08:05:26;99881.03;;;13.74
13497;BMP180;6820;49.374;8.452;2024-03-25T08:09:29;99880.50;;;13.83
13497;BMP180;6820;49.374;8.452;2024-03-25T08:13:29;99873.88;;;13.86
13497;BMP180;6820;49.374;8.452;2024-03-25T08:17:30;99880.91;;;13.92
13497;BMP180;6820;49.374;8.452;2024-03-25T08:21:31;99878.03;;;14.04
13497;BMP180;6820;49.374;8.452;2024-03-25T08:25:32;99876.84;;;14.17
13497;BMP180;6820;49.374;8.452;2024-03-25T08:29:32;99865.56;;;14.32
13497;BMP180;6820;49.374;8.452;2024-03-25T08:33:33;99857.56;;;14.45
13497;BMP180;6820;49.374;8.452;2024-03-25T08:37:34;99853.00;;;14.60
13497;BMP180;6820;49.374;8.452;2024-03-25T08:41:35;99859.47;;;14.73
13497;BMP180;6820;49.374;8.452;2024-03-25T08:45:35;99851.41;;;14.85
13497;BMP180;6820;49.374;8.452;2024-03-25T08:49:36;99847.25;;;14.88
13497;BMP180;6820;49.374;8.452;2024-03-25T08:53:37;99857.13;;;15.02
13497;BMP180;6820;49.374;8.452;2024-03-25T08:57:38;99859.84;;;15.07
13497;BMP180;6820;49.374;8.452;2024-03-25T09:01:38;99862.94;;;15.22
13497;BMP180;6820;49.374;8.452;2024-03-25T09:05:39;99856.66;;;15.35
13497;BMP180;6820;49.374;8.452;2024-03-25T09:09:43;99852.22;;;15.56
13497;BMP180;6820;49.374;8.452;2024-03-25T09:14:02;99841.88;;;15.78
13497;BMP180;6820;49.374;8.452;2024-03-25T09:18:04;99836.41;;;15.93
13497;BMP180;6820;49.374;8.452;2024-03-25T09:22:05;99816.06;;;15.96
13497;BMP180;6820;49.374;8.452;2024-03-25T09:26:06;99811.00;;;15.98
13497;BMP180;6820;49.374;8.452;2024-03-25T09:30:07;99796.63;;;16.01
13497;BMP180;6820;49.374;8.452;2024-03-25T09:34:09;99801.50;;;16.20
13497;BMP180;6820;49.374;8.452;2024-03-25T09:38:10;99789.13;;;16.33
13497;BMP180;6820;49.374;8.452;2024-03-25T09:42:14;99777.59;;;16.47
13497;BMP180;6820;49.374;8.452;2024-03-25T09:46:15;99773.75;;;16.61
13497;BMP180;6820;49.374;8.452;2024-03-25T09:50:17;99758.00;;;16.78
13497;BMP180;6820;49.374;8.452;2024-03-25T09:54:20;99767.44;;;16.80
13497;BMP180;6820;49.374;8.452;2024-03-25T09:58:21;99751.31;;;16.83
13497;BMP180;6820;49.374;8.452;2024-03-25T10:02:22;99754.94;;;16.91
13497;BMP180;6820;49.374;8.452;2024-03-25T10:06:27;99755.16;;;17.00
13497;BMP180;6820;49.374;8.452;2024-03-25T10:10:27;99747.06;;;17.15
13497;BMP180;6820;49.374;8.452;2024-03-25T10:14:28;99737.91;;;17.23
13497;BMP180;6820;49.374;8.452;2024-03-25T10:18:29;99738.66;;;17.19
13497;BMP180;6820;49.374;8.452;2024-03-25T10:22:29;99733.88;;;17.33
13497;BMP180;6820;49.374;8.452;2024-03-25T10:26:32;99734.25;;;17.49
13497;BMP180;6820;49.374;8.452;2024-03-25T10:30:33;99717.44;;;17.60
13497;BMP180;6820;49.374;8.452;2024-03-25T10:34:33;99718.53;;;17.70
13497;BMP180;6820;49.374;8.452;2024-03-25T10:38:34;99712.88;;;17.83
13497;BMP180;6820;49.374;8.452;2024-03-25T10:42:38;99717.31;;;17.93
13497;BMP180;6820;49.374;8.452;2024-03-25T10:46:39;99705.63;;;18.04
13497;BMP180;6820;49.374;8.452;2024-03-25T10:50:43;99692.13;;;18.11
13497;BMP180;6820;49.374;8.452;2024-03-25T10:54:45;99686.97;;;18.11
13497;BMP180;6820;49.374;8.452;2024-03-25T10:58:50;99685.44;;;18.19
13497;BMP180;6820;49.374;8.452;2024-03-25T11:02:52;99679.56;;;18.26
13497;BMP180;6820;49.374;8.452;2024-03-25T11:06:54;99659.03;;;18.24
13497;BMP180;6820;49.374;8.452;2024-03-25T11:10:55;99669.66;;;18.42
13497;BMP180;6820;49.374;8.452;2024-03-25T11:14:57;99654.63;;;18.61
13497;BMP180;6820;49.374;8.452;2024-03-25T11:19:04;99645.31;;;18.67
13497;BMP180;6820;49.374;8.452;2024-03-25T11:23:11;99654.00;;;18.74
13497;BMP180;6820;49.374;8.452;2024-03-25T11:27:11;99615.50;;;18.74
13497;BMP180;6820;49.374;8.452;2024-03-25T11:31:12;99619.03;;;18.82
13497;BMP180;6820;49.374;8.452;2024-03-25T11:35:13;99614.25;;;19.01
13497;BMP180;6820;49.374;8.452;2024-03-25T11:39:16;99610.16;;;19.12
13497;BMP180;6820;49.374;8.452;2024-03-25T11:43:21;99600.78;;;19.15
13497;BMP180;6820;49.374;8.452;2024-03-25T11:47:22;99616.28;;;19.21
13497;BMP180;6820;49.374;8.452;2024-03-25T11:51:24;99595.03;;;19.31
13497;BMP180;6820;49.374;8.452;2024-03-25T11:55:26;99574.63;;;19.43
13497;BMP180;6820;49.374;8.452;2024-03-25T11:59:26;99565.31;;;19.51
13497;BMP180;6820;49.374;8.452;2024-03-25T12:03:27;99568.81;;;19.55
13497;BMP180;6820;49.374;8.452;2024-03-25T12:07:29;99565.53;;;19.68
13497;BMP180;6820;49.374;8.452;2024-03-25T12:11:30;99558.09;;;19.87
13497;BMP180;6820;49.374;8.452;2024-03-25T12:15:31;99553.00;;;19.93
13497;BMP180;6820;49.374;8.452;2024-03-25T12:19:32;99541.03;;;19.94
13497;BMP180;6820;49.374;8.452;2024-03-25T12:23:33;99532.47;;;19.95
13497;BMP180;6820;49.374;8.452;2024-03-25T12:27:36;99533.38;;;20.01
13497;BMP180;6820;49.374;8.452;2024-03-25T12:31:37;99519.78;;;20.11
13497;BMP180;6820;49.374;8.452;2024-03-25T12:35:38;99511.22;;;20.14
13497;BMP180;6820;49.374;8.452;2024-03-25T12:39:47;99499.25;;;20.15
13497;BMP180;6820;49.374;8.452;2024-03-25T12:43:50;99491.56;;;20.21
13497;BMP180;6820;49.374;8.452;2024-03-25T12:47:51;99482.25;;;20.35
13497;BMP180;6820;49.374;8.452;2024-03-25T12:51:51;99475.47;;;20.43
13497;BMP180;6820;49.374;8.452;2024-03-25T12:55:52;99465.22;;;20.47
13497;BMP180;6820;49.374;8.452;2024-03-25T12:59:53;99436.97;;;20.56
13497;BMP180;6820;49.374;8.452;2024-03-25T13:03:54;99438.78;;;20.66
13497;BMP180;6820;49.374;8.452;2024-03-25T13:07:54;99431.06;;;20.71
13497;BMP180;6820;49.374;8.452;2024-03-25T13:11:56;99426.84;;;20.80
13497;BMP180;6820;49.374;8.452;2024-03-25T13:15:57;99413.94;;;20.81
13497;BMP180;6820;49.374;8.452;2024-03-25T13:19:58;99399.44;;;20.95
13497;BMP180;6820;49.374;8.452;2024-03-25T13:23:59;99388.34;;;21.12
13497;BMP180;6820;49.374;8.452;2024-03-25T13:28:00;99386.66;;;21.26
13497;BMP180;6820;49.374;8.452;2024-03-25T13:32:00;99379.88;;;21.43
13497;BMP180;6820;49.374;8.452;2024-03-25T13:36:02;99379.88;;;21.53
13497;BMP180;6820;49.374;8.452;2024-03-25T13:40:03;99368.72;;;21.59
13497;BMP180;6820;49.374;8.452;2024-03-25T13:44:06;99363.53;;;21.45
13497;BMP180;6820;49.374;8.452;2024-03-25T13:48:07;99365.31;;;21.54
13497;BMP180;6820;49.374;8.452;2024-03-25T13:52:08;99346.41;;;21.83
13497;BMP180;6820;49.374;8.452;2024-03-25T13:56:08;99349.88;;;21.97
13497;BMP180;6820;49.374;8.452;2024-03-25T14:00:09;99338.66;;;22.06
13497;BMP180;6820;49.374;8.452;2024-03-25T14:04:12;99334.38;;;22.26
13497;BMP180;6820;49.374;8.452;2024-03-25T14:08:13;99320.53;;;22.46
13497;BMP180;6820;49.374;8.452;2024-03-25T14:12:14;99306.75;;;22.59
13497;BMP180;6820;49.374;8.452;2024-03-25T14:16:14;99299.81;;;22.62
13497;BMP180;6820;49.374;8.452;2024-03-25T14:20:15;99277.41;;;22.75
13497;BMP180;6820;49.374;8.452;2024-03-25T14:24:16;99282.56;;;22.82
13497;BMP180;6820;49.374;8.452;2024-03-25T14:28:16;99270.50;;;22.86
13497;BMP180;6820;49.374;8.452;2024-03-25T14:32:19;99256.72;;;22.78
13497;BMP180;6820;49.374;8.452;2024-03-25T14:36:19;99247.31;;;22.69
13497;BMP180;6820;49.374;8.452;2024-03-25T14:40:20;99240.41;;;22.65
13497;BMP180;6820;49.374;8.452;2024-03-25T14:44:21;99231.81;;;22.66
13497;BMP180;6820;49.374;8.452;2024-03-25T14:48:22;99231.00;;;22.59
13497;BMP180;6820;49.374;8.452;2024-03-25T14:52:23;99218.97;;;22.52
13497;BMP180;6820;49.374;8.452;2024-03-25T14:56:23;99216.31;;;22.66
13497;BMP180;6820;49.374;8.452;2024-03-25T15:00:24;99212.81;;;22.79
13497;BMP180;6820;49.374;8.452;2024-03-25T15:04:25;99206.78;;;22.77
13497;BMP180;6820;49.374;8.452;2024-03-25T15:08:26;99198.22;;;22.72
13497;BMP180;6820;49.374;8.452;2024-03-25T15:12:26;99195.63;;;22.74
13497;BMP180;6820;49.374;8.452;2024-03-25T15:16:27;99190.41;;;22.84
13497;BMP180;6820;49.374;8.452;2024-03-25T15:20:28;99181.75;;;22.92
13497;BMP180;6820;49.374;8.452;2024-03-25T15:24:29;99176.63;;;22.88
13497;BMP180;6820;49.374;8.452;2024-03-25T15:28:29;99178.31;;;22.93
13497;BMP180;6820;49.374;8.452;2024-03-25T15:32:30;99176.59;;;22.91
13497;BMP180;6820;49.374;8.452;2024-03-25T15:36:31;99167.16;;;22.86
13497;BMP180;6820;49.374;8.452;2024-03-25T15:40:31;99157.69;;;22.88
13497;BMP180;6820;49.374;8.452;2024-03-25T15:44:32;99153.41;;;22.82
13497;BMP180;6820;49.374;8.452;2024-03-25T15:48:33;99139.66;;;22.80
13497;BMP180;6820;49.374;8.452;2024-03-25T15:52:34;99145.66;;;22.82
13497;BMP180;6820;49.374;8.452;2024-03-25T15:56:34;99125.84;;;22.87
13497;BMP180;6820;49.374;8.452;2024-03-25T16:00:35;99136.13;;;22.89
13497;BMP180;6820;49.374;8.452;2024-03-25T16:04:36;99126.69;;;22.79
13497;BMP180;6820;49.374;8.452;2024-03-25T16:08:37;99116.47;;;22.65
13497;BMP180;6820;49.374;8.452;2024-03-25T16:12:38;99119.06;;;22.62
13497;BMP180;6820;49.374;8.452;2024-03-25T16:16:41;99115.63;;;22.62
13497;BMP180;6820;49.374;8.452;2024-03-25T16:20:42;99101.06;;;22.55
13497;BMP180;6820;49.374;8.452;2024-03-25T16:24:43;99102.06;;;22.30
13497;BMP180;6820;49.374;8.452;2024-03-25T16:28:44;99106.47;;;22.03
13497;BMP180;6820;49.374;8.452;2024-03-25T16:32:45;99102.19;;;21.94
13497;BMP180;6820;49.374;8.452;2024-03-25T16:36:45;99092.78;;;21.85
13497;BMP180;6820;49.374;8.452;2024-03-25T16:40:46;99095.44;;;21.66
13497;BMP180;6820;49.374;8.452;2024-03-25T16:44:47;99087.75;;;21.51
13497;BMP180;6820;49.374;8.452;2024-03-25T16:48:48;99083.50;;;21.30
13497;BMP180;6820;49.374;8.452;2024-03-25T16:52:49;99081.78;;;21.09
13497;BMP180;6820;49.374;8.452;2024-03-25T16:56:49;99080.09;;;20.85
13497;BMP180;6820;49.374;8.452;2024-03-25T17:00:50;99075.78;;;20.56
13497;BMP180;6820;49.374;8.452;2024-03-25T17:04:52;99076.59;;;20.34
13497;BMP180;6820;49.374;8.452;2024-03-25T17:08:53;99067.09;;;20.17
13497;BMP180;6820;49.374;8.452;2024-03-25T17:12:54;99073.91;;;19.99
13497;BMP180;6820;49.374;8.452;2024-03-25T17:16:55;99070.41;;;19.79
13497;BMP180;6820;49.374;8.452;2024-03-25T17:20:59;99059.16;;;19.64
13497;BMP180;6820;49.374;8.452;2024-03-25T17:25:00;99073.69;;;19.52
13497;BMP180;6820;49.374;8.452;2024-03-25T17:29:01;99070.22;;;19.41
13497;BMP180;6820;49.374;8.452;2024-03-25T17:33:02;99068.44;;;19.31
13497;BMP180;6820;49.374;8.452;2024-03-25T17:37:04;99068.34;;;19.18
13497;BMP180;6820;49.374;8.452;2024-03-25T17:41:05;99064.00;;;19.08
13497;BMP180;6820;49.374;8.452;2024-03-25T17:45:06;99053.66;;;18.99
13497;BMP180;6820;49.374;8.452;2024-03-25T17:49:06;99055.28;;;18.88
13497;BMP180;6820;49.374;8.452;2024-03-25T17:53:07;99058.59;;;18.78
13497;BMP180;6820;49.374;8.452;2024-03-25T17:57:08;99053.44;;;18.72
13497;BMP180;6820;49.374;8.452;2024-03-25T18:01:09;99043.09;;;18.65
13497;BMP180;6820;49.374;8.452;2024-03-25T18:05:10;99048.19;;;18.59
13497;BMP180;6820;49.374;8.452;2024-03-25T18:09:10;99044.72;;;18.53
13497;BMP180;6820;49.374;8.452;2024-03-25T18:13:14;99043.81;;;18.48
13497;BMP180;6820;49.374;8.452;2024-03-25T18:17:24;99030.97;;;18.42
13497;BMP180;6820;49.374;8.452;2024-03-25T18:21:24;99031.75;;;18.36
13497;BMP180;6820;49.374;8.452;2024-03-25T18:25:25;99024.84;;;18.30
13497;BMP180;6820;49.374;8.452;2024-03-25T18:29:26;99021.38;;;18.23
13497;BMP180;6820;49.374;8.452;2024-03-25T18:33:27;99012.78;;;18.18
13497;BMP180;6820;49.374;8.452;2024-03-25T18:37:27;99014.41;;;18.12
13497;BMP180;6820;49.374;8.452;2024-03-25T18:41:28;99008.38;;;18.05
13497;BMP180;6820;49.374;8.452;2024-03-25T18:45:29;99000.56;;;17.98
13497;BMP180;6820;49.374;8.452;2024-03-25T18:49:30;99008.19;;;17.91
13497;BMP180;6820;49.374;8.452;2024-03-25T18:53:30;99004.69;;;17.84
13497;BMP180;6820;49.374;8.452;2024-03-25T18:57:31;98973.03;;;17.79
13497;BMP180;6820;49.374;8.452;2024-03-25T19:01:32;98994.31;;;17.71
13497;BMP180;6820;49.374;8.452;2024-03-25T19:05:33;98994.28;;;17.68
13497;BMP180;6820;49.374;8.452;2024-03-25T19:09:33;98992.47;;;17.60
13497;BMP180;6820;49.374;8.452;2024-03-25T19:13:34;98992.44;;;17.57
13497;BMP180;6820;49.374;8.452;2024-03-25T19:17:35;98979.56;;;17.52
13497;BMP180;6820;49.374;8.452;2024-03-25T19:21:36;98975.25;;;17.47
13497;BMP180;6820;49.374;8.452;2024-03-25T19:25:37;98975.19;;;17.42
13497;BMP180;6820;49.374;8.452;2024-03-25T19:29:37;98974.25;;;17.38
13497;BMP180;6820;49.374;8.452;2024-03-25T19:33:38;98969.09;;;17.35
13497;BMP180;6820;49.374;8.452;2024-03-25T19:37:39;98960.50;;;17.28
13497;BMP180;6820;49.374;8.452;2024-03-25T19:41:40;98951.97;;;17.28
13497;BMP180;6820;49.374;8.452;2024-03-25T19:45:41;98951.94;;;17.25
13497;BMP180;6820;49.374;8.452;2024-03-25T19:49:42;98941.63;;;17.20
13497;BMP180;6820;49.374;8.452;2024-03-25T19:53:42;98938.16;;;17.15
13497;BMP180;6820;49.374;8.452;2024-03-25T19:57:43;98933.78;;;17.10
13497;BMP180;6820;49.374;8.452;2024-03-25T20:01:44;98930.31;;;17.04
13497;BMP180;6820;49.374;8.452;2024-03-25T20:05:45;98930.25;;;16.99
13497;BMP180;6820;49.374;8.452;2024-03-25T20:09:46;98927.66;;;16.98
13497;BMP180;6820;49.374;8.452;2024-03-25T20:13:46;98925.94;;;16.97
13497;BMP180;6820;49.374;8.452;2024-03-25T20:17:47;98915.69;;;16.94
13497;BMP180;6820;49.374;8.452;2024-03-25T20:21:48;98912.25;;;16.93
13497;BMP180;6820;49.374;8.452;2024-03-25T20:25:49;98910.53;;;16.91
13497;BMP180;6820;49.374;8.452;2024-03-25T20:29:53;98908.78;;;16.88
13497;BMP180;6820;49.374;8.452;2024-03-25T20:33:54;98909.63;;;16.87
13497;BMP180;6820;49.374;8.452;2024-03-25T20:37:55;98907.91;;;16.86
13497;BMP180;6820;49.374;8.452;2024-03-25T20:41:55;98901.06;;;16.85
13497;BMP180;6820;49.374;8.452;2024-03-25T20:45:56;98902.75;;;16.83
13497;BMP180;6820;49.374;8.452;2024-03-25T20:49:57;98899.28;;;16.80
13497;BMP180;6820;49.374;8.452;2024-03-25T20:53:59;98896.69;;;16.77
13497;BMP180;6820;49.374;8.452;2024-03-25T20:58:05;98894.16;;;16.77
13497;BMP180;6820;49.374;8.452;2024-03-25T21:02:06;98887.25;;;16.73
13497;BMP180;6820;49.374;8.452;2024-03-25T21:06:07;98877.88;;;16.72
13497;BMP180;6820;49.374;8.452;2024-03-25T21:10:08;98876.97;;;16.70
13497;BMP180;6820;49.374;8.452;2024-03-25T21:14:09;98869.28;;;16.67
13497;BMP180;6820;49.374;8.452;2024-03-25T21:18:10;98871.78;;;16.64
13497;BMP180;6820;49.374;8.452;2024-03-25T21:22:11;98869.25;;;16.64
13497;BMP180;6820;49.374;8.452;2024-03-25T21:26:12;98881.13;;;16.62
13497;BMP180;6820;49.374;8.452;2024-03-25T21:30:12;98858.91;;;16.55
13497;BMP180;6820;49.374;8.452;2024-03-25T21:34:13;98875.91;;;16.53
13497;BMP180;6820;49.374;8.452;2024-03-25T21:38:14;98871.63;;;16.52
13497;BMP180;6820;49.374;8.452;2024-03-25T21:42:15;98869.03;;;16.49
13497;BMP180;6820;49.374;8.452;2024-03-25T21:46:15;98869.84;;;16.46
13497;BMP180;6820;49.374;8.452;2024-03-25T21:50:16;98861.22;;;16.41
13497;BMP180;6820;49.374;8.452;2024-03-25T21:54:17;98859.44;;;16.35
13497;BMP180;6820;49.374;8.452;2024-03-25T21:58:17;98867.16;;;16.37
13497;BMP180;6820;49.374;8.452;2024-03-25T22:02:18;98860.25;;;16.33
13497;BMP180;6820;49.374;8.452;2024-03-25T22:06:19;98865.38;;;16.31
13497;BMP180;6820;49.374;8.452;2024-03-25T22:10:20;98863.63;;;16.29
13497;BMP180;6820;49.374;8.452;2024-03-25T22:14:20;98861.00;;;16.24
13497;BMP180;6820;49.374;8.452;2024-03-25T22:18:21;98855.00;;;16.21
13497;BMP180;6820;49.374;8.452;2024-03-25T22:22:22;98851.47;;;16.15
13497;BMP180;6820;49.374;8.452;2024-03-25T22:26:23;98841.97;;;16.09
13497;BMP180;6820;49.374;8.452;2024-03-25T22:30:23;98850.47;;;16.07
13497;BMP180;6820;49.374;8.452;2024-03-25T22:34:24;98843.59;;;16.03
13497;BMP180;6820;49.374;8.452;2024-03-25T22:38:25;98840.16;;;15.99
13497;BMP180;6820;49.374;8.452;2024-03-25T22:42:26;98842.66;;;15.98
13497;BMP180;6820;49.374;8.452;2024-03-25T22:46:27;98839.22;;;15.96
13497;BMP180;6820;49.374;8.452;2024-03-25T22:50:27;98835.72;;;15.91
13497;BMP180;6820;49.374;8.452;2024-03-25T22:54:28;98831.44;;;15.87
13497;BMP180;6820;49.374;8.452;2024-03-25T22:58:29;98825.44;;;15.85
13497;BMP180;6820;49.374;8.452;2024-03-25T23:02:30;98827.03;;;15.80
13497;BMP180;6820;49.374;8.452;2024-03-25T23:06:31;98834.66;;;15.77
13497;BMP180;6820;49.374;8.452;2024-03-25T23:10:32;98823.56;;;15.75
13497;BMP180;6820;49.374;8.452;2024-03-25T23:14:32;98819.25;;;15.71
13497;BMP180;6820;49.374;8.452;2024-03-25T23:18:33;98809.81;;;15.66
13497;BMP180;6820;49.374;8.452;2024-03-25T23:22:34;98803.81;;;15.64
13497;BMP180;6820;49.374;8.452;2024-03-25T23:26:34;98815.72;;;15.63
13497;BMP180;6820;49.374;8.452;2024-03-25T23:30:36;98807.16;;;15.60